createdAt,value
2023-03-22T00:00:19.331Z,2.58
2023-03-22T00:02:46.556Z,2.50
2023-03-22T00:05:13.734Z,1.90
2023-03-22T00:07:41.760Z,2.38
2023-03-22T00:10:09.345Z,2.03
2023-03-22T00:12:36.546Z,1.52
2023-03-22T00:15:04.102Z,2.00
2023-03-22T00:17:32.908Z,1.98
2023-03-22T00:20:00.093Z,1.98
2023-03-22T00:22:27.313Z,2.13
2023-03-22T00:24:54.599Z,2.88
2023-03-22T00:27:21.764Z,2.67
2023-03-22T00:29:49.272Z,2.40
2023-03-22T00:32:16.864Z,1.80
2023-03-22T00:34:44.158Z,2.03
2023-03-22T00:37:12.638Z,2.45
2023-03-22T00:39:40.008Z,2.80
2023-03-22T00:42:08.604Z,2.22
2023-03-22T00:44:36.205Z,2.00
2023-03-22T00:47:03.894Z,2.28
2023-03-22T00:49:35.221Z,1.65
2023-03-22T00:52:02.626Z,2.35
2023-03-22T00:54:29.789Z,2.58
2023-03-22T00:56:56.937Z,2.42
2023-03-22T00:59:24.200Z,3.90
2023-03-22T01:01:51.434Z,1.58
2023-03-22T01:04:25.957Z,1.88
2023-03-22T01:06:59.471Z,2.50
2023-03-22T01:09:29.669Z,1.92
2023-03-22T01:11:58.288Z,2.75
2023-03-22T01:14:26.289Z,1.80
2023-03-22T01:16:57.789Z,1.98
2023-03-22T01:19:27.515Z,2.42
2023-03-22T01:21:54.993Z,1.70
2023-03-22T01:24:22.608Z,2.75
2023-03-22T01:26:50.441Z,2.22
2023-03-22T01:29:17.924Z,2.17
2023-03-22T01:31:45.359Z,2.70
2023-03-22T01:34:13.469Z,2.53
2023-03-22T01:36:40.871Z,2.35
2023-03-22T01:39:08.326Z,2.10
2023-03-22T01:41:37.438Z,3.35
2023-03-22T01:44:18.459Z,2.47
2023-03-22T01:46:48.268Z,2.35
2023-03-22T01:49:20.523Z,2.58
2023-03-22T01:54:40.666Z,2.38
2023-03-22T01:57:21.137Z,4.00
2023-03-22T01:59:50.257Z,2.63
2023-03-22T02:02:30.941Z,3.35
2023-03-22T02:05:09.716Z,3.22
2023-03-22T02:07:38.331Z,4.30
2023-03-22T02:10:12.249Z,2.20
2023-03-22T02:12:50.494Z,2.72
2023-03-22T02:16:10.063Z,2.63
2023-03-22T02:19:24.285Z,2.75
2023-03-22T02:22:14.415Z,4.07
2023-03-22T02:25:15.455Z,2.53
2023-03-22T02:28:18.860Z,2.28
2023-03-22T02:31:04.585Z,2.35
2023-03-22T02:33:34.504Z,2.38
2023-03-22T02:36:34.755Z,2.30
2023-03-22T02:39:23.138Z,3.38
2023-03-22T02:41:56.602Z,2.85
2023-03-22T02:44:30.729Z,2.45
2023-03-22T02:47:21.665Z,2.70
2023-03-22T02:50:07.700Z,2.25
2023-03-22T02:52:40.514Z,2.35
2023-03-22T02:55:29.542Z,2.75
2023-03-22T02:58:31.217Z,3.22
2023-03-22T03:01:05.901Z,3.17
2023-03-22T03:03:37.798Z,2.38
2023-03-22T03:06:13.784Z,1.92
2023-03-22T03:08:42.280Z,1.98
2023-03-22T03:11:10.262Z,1.98
2023-03-22T03:13:37.545Z,2.72
2023-03-22T03:16:07.981Z,2.75
2023-03-22T03:19:00.314Z,1.95
2023-03-22T03:21:45.323Z,2.03
2023-03-22T03:24:46.876Z,1.92
2023-03-22T03:27:21.823Z,2.50
2023-03-22T03:30:04.477Z,2.38
2023-03-22T03:32:45.137Z,2.25
2023-03-22T03:35:26.242Z,1.80
2023-03-22T03:38:32.124Z,2.78
2023-03-22T03:41:03.824Z,2.45
2023-03-22T03:43:32.145Z,2.08
2023-03-22T03:46:00.520Z,2.88
2023-03-22T03:48:32.710Z,1.95
2023-03-22T03:51:01.883Z,2.55
2023-03-22T03:53:30.283Z,2.10
2023-03-22T03:55:57.780Z,2.05
2023-03-22T03:58:27.204Z,2.60
2023-03-22T04:00:54.425Z,1.85
2023-03-22T04:03:35.459Z,1.67
2023-03-22T04:06:22.920Z,1.50
2023-03-22T04:11:28.514Z,1.63
2023-03-22T04:13:59.954Z,1.50
2023-03-22T04:16:27.081Z,1.27
2023-03-22T04:18:54.354Z,1.90
2023-03-22T04:21:21.827Z,1.75
2023-03-22T04:23:56.432Z,1.30
2023-03-22T04:26:26.217Z,1.58
2023-03-22T04:29:08.013Z,1.38
2023-03-22T04:31:39.145Z,1.70
2023-03-22T04:34:17.768Z,1.48
2023-03-22T04:37:04.982Z,1.27
2023-03-22T04:39:35.357Z,1.38
2023-03-22T04:42:22.183Z,1.02
2023-03-22T04:44:56.167Z,1.63
2023-03-22T04:47:23.324Z,2.00
2023-03-22T04:49:50.991Z,1.20
2023-03-22T04:52:18.314Z,1.05
2023-03-22T04:54:52.322Z,1.08
2023-03-22T04:57:19.576Z,1.48
2023-03-22T04:59:48.540Z,1.13
2023-03-22T05:02:16.829Z,0.82
2023-03-22T05:04:44.531Z,1.02
2023-03-22T05:07:31.648Z,0.70
2023-03-22T05:10:01.615Z,1.23
2023-03-22T05:12:29.175Z,1.20
2023-03-22T05:15:01.209Z,1.15
2023-03-22T05:17:34.010Z,1.10
2023-03-22T05:20:09.325Z,0.80
2023-03-22T05:22:40.775Z,1.17
2023-03-22T05:25:10.832Z,0.82
2023-03-22T05:27:40.699Z,0.65
2023-03-22T05:30:34.274Z,0.98
2023-03-22T05:33:09.534Z,0.80
2023-03-22T05:35:42.823Z,1.08
2023-03-22T05:38:11.277Z,2.28
2023-03-22T05:40:43.949Z,1.23
2023-03-22T05:43:11.708Z,1.60
2023-03-22T05:45:43.239Z,0.98
2023-03-22T05:48:30.312Z,0.85
2023-03-22T05:50:57.609Z,1.20
2023-03-22T05:53:24.982Z,1.50
2023-03-22T05:56:12.952Z,1.90
2023-03-22T05:58:42.484Z,1.27
2023-03-22T06:01:13.418Z,1.00
2023-03-22T06:03:46.619Z,1.17
2023-03-22T06:06:36.475Z,1.35
2023-03-22T06:09:17.262Z,1.23
2023-03-22T06:11:46.831Z,1.35
2023-03-22T06:14:15.971Z,1.00
2023-03-22T06:16:57.283Z,1.48
2023-03-22T06:19:25.730Z,1.20
2023-03-22T06:21:54.785Z,1.10
2023-03-22T06:24:24.413Z,0.68
2023-03-22T06:26:51.646Z,0.85
2023-03-22T06:29:18.814Z,1.00
2023-03-22T06:31:47.631Z,0.80
2023-03-22T06:34:14.774Z,0.70
2023-03-22T06:36:42.923Z,1.38
2023-03-22T06:39:17.322Z,0.60
2023-03-22T06:41:47.441Z,1.13
2023-03-22T06:44:15.038Z,0.52
2023-03-22T06:47:03.646Z,0.70
2023-03-22T06:49:56.728Z,1.02
2023-03-22T06:52:28.245Z,0.93
2023-03-22T06:54:56.996Z,0.80
2023-03-22T06:57:24.777Z,1.10
2023-03-22T06:59:51.925Z,0.82
2023-03-22T07:02:19.101Z,1.20
2023-03-22T07:05:06.585Z,1.45
2023-03-22T07:07:33.799Z,1.25
2023-03-22T07:10:01.015Z,1.10
2023-03-22T07:12:28.396Z,1.27
2023-03-22T07:14:56.235Z,1.23
2023-03-22T07:17:41.469Z,1.80
2023-03-22T07:20:09.254Z,1.70
2023-03-22T07:22:36.457Z,1.95
2023-03-22T07:25:04.687Z,1.67
2023-03-22T07:27:33.436Z,1.60
2023-03-22T07:30:01.130Z,2.05
2023-03-22T07:32:29.926Z,1.80
2023-03-22T07:35:16.796Z,1.90
2023-03-22T07:37:44.716Z,1.73
2023-03-22T07:40:21.329Z,2.50
2023-03-22T07:42:49.943Z,1.60
2023-03-22T07:45:23.453Z,2.40
2023-03-22T07:48:23.657Z,2.10
2023-03-22T07:51:19.318Z,2.67
2023-03-22T07:53:47.255Z,2.25
2023-03-22T07:56:14.857Z,2.22
2023-03-22T07:58:42.251Z,1.63
2023-03-22T08:01:10.075Z,2.17
2023-03-22T08:06:40.471Z,2.58
2023-03-22T08:09:08.558Z,2.35
2023-03-22T08:11:36.725Z,2.10
2023-03-22T08:14:04.273Z,2.28
2023-03-22T08:16:34.575Z,2.70
2023-03-22T08:19:03.625Z,1.80
2023-03-22T08:21:34.803Z,1.73
2023-03-22T08:24:02.942Z,2.80
2023-03-22T08:26:59.618Z,1.98
2023-03-22T08:29:34.083Z,2.20
2023-03-22T08:32:03.982Z,2.03
2023-03-22T08:34:31.575Z,2.35
2023-03-22T08:36:58.777Z,2.20
2023-03-22T08:39:27.099Z,1.85
2023-03-22T08:42:12.366Z,1.77
2023-03-22T08:44:39.707Z,2.28
2023-03-22T08:47:06.894Z,2.45
2023-03-22T08:49:34.736Z,1.10
2023-03-22T08:52:09.492Z,1.15
2023-03-22T08:54:44.163Z,1.02
2023-03-22T08:57:40.087Z,1.67
2023-03-22T09:00:48.113Z,1.13
2023-03-22T09:03:36.294Z,1.13
2023-03-22T09:06:03.790Z,1.13
2023-03-22T09:08:36.237Z,1.17
2023-03-22T09:11:09.915Z,0.90
2023-03-22T09:13:37.421Z,1.10
2023-03-22T09:16:06.816Z,1.33
2023-03-22T09:18:34.214Z,1.20
2023-03-22T09:21:08.614Z,1.02
2023-03-22T09:23:47.720Z,1.00
2023-03-22T09:26:17.030Z,1.58
2023-03-22T09:28:47.576Z,1.17
2023-03-22T09:31:15.535Z,1.05
2023-03-22T09:33:43.966Z,1.10
2023-03-22T09:36:14.659Z,0.90
2023-03-22T09:38:42.184Z,1.15
2023-03-22T09:41:18.425Z,1.13
2023-03-22T09:43:57.384Z,1.23
2023-03-22T09:46:37.396Z,1.60
2023-03-22T09:49:26.326Z,1.17
2023-03-22T09:51:55.014Z,0.77
2023-03-22T09:54:37.526Z,0.85
2023-03-22T09:59:57.218Z,0.73
2023-03-22T10:02:59.484Z,0.93
2023-03-22T10:05:51.657Z,0.90
2023-03-22T10:08:49.567Z,0.68
2023-03-22T10:11:46.752Z,0.60
2023-03-22T10:14:23.616Z,0.60
2023-03-22T10:16:56.399Z,0.80
2023-03-22T10:19:27.453Z,0.50
2023-03-22T10:21:56.792Z,0.93
2023-03-22T10:24:46.158Z,0.70
2023-03-22T10:27:19.449Z,0.93
2023-03-22T10:30:08.050Z,0.70
2023-03-22T10:32:58.382Z,0.65
2023-03-22T10:35:26.375Z,0.77
2023-03-22T10:37:56.317Z,0.70
2023-03-22T10:40:35.796Z,0.70
2023-03-22T10:43:23.011Z,0.63
2023-03-22T10:45:52.989Z,1.08
2023-03-22T10:48:33.257Z,0.88
2023-03-22T10:51:02.735Z,0.43
2023-03-22T10:53:42.496Z,0.43
2023-03-22T10:56:15.329Z,0.60
2023-03-22T10:58:43.138Z,0.50
2023-03-22T11:01:14.112Z,0.98
2023-03-22T11:03:50.305Z,0.85
2023-03-22T11:06:24.493Z,0.65
2023-03-22T11:08:58.917Z,0.80
2023-03-22T11:11:31.006Z,1.00
2023-03-22T11:14:07.013Z,0.68
2023-03-22T11:16:54.083Z,0.75
2023-03-22T11:19:34.197Z,1.00
2023-03-22T11:22:04.834Z,0.90
2023-03-22T11:24:34.464Z,1.08
2023-03-22T11:27:24.373Z,0.90
2023-03-22T11:29:57.045Z,1.17
2023-03-22T11:32:39.574Z,1.30
2023-03-22T11:37:48.568Z,0.80
2023-03-22T11:40:20.976Z,1.30
2023-03-22T11:45:25.498Z,0.73
2023-03-22T11:47:55.902Z,1.50
2023-03-22T11:50:29.888Z,0.80
2023-03-22T11:52:57.409Z,0.63
2023-03-22T11:55:26.409Z,1.13
2023-03-22T11:57:55.978Z,1.02
2023-03-22T12:00:29.940Z,1.40
2023-03-22T12:03:14.461Z,0.63
2023-03-22T12:05:46.295Z,0.40
2023-03-22T12:08:33.073Z,0.52
2023-03-22T12:11:18.058Z,0.40
2023-03-22T12:14:00.063Z,0.30
2023-03-22T12:16:36.349Z,0.43
2023-03-22T12:19:19.961Z,0.45
2023-03-22T12:21:50.102Z,0.35
2023-03-22T12:24:30.364Z,0.30
2023-03-22T12:27:15.077Z,0.32
2023-03-22T12:29:53.595Z,0.55
2023-03-22T12:32:28.860Z,0.30
2023-03-22T12:35:05.468Z,0.38
2023-03-22T12:37:48.301Z,0.22
2023-03-22T12:40:27.256Z,0.30
2023-03-22T12:43:13.935Z,0.63
2023-03-22T12:45:49.047Z,0.45
2023-03-22T12:48:25.461Z,0.40
2023-03-22T12:51:03.350Z,0.45
2023-03-22T12:53:47.743Z,0.60
2023-03-22T12:56:22.066Z,0.70
2023-03-22T12:58:53.843Z,0.60
2023-03-22T13:01:37.772Z,0.55
2023-03-22T13:04:36.242Z,0.55
2023-03-22T13:07:16.593Z,1.00
2023-03-22T13:09:49.232Z,0.50
2023-03-22T13:12:19.147Z,0.80
2023-03-22T13:14:52.216Z,0.73
2023-03-22T13:17:25.831Z,1.00
2023-03-22T13:20:14.853Z,0.88
2023-03-22T13:22:42.113Z,0.80
2023-03-22T13:25:13.010Z,1.10
2023-03-22T13:28:09.579Z,1.02
2023-03-22T13:30:49.308Z,0.95
2023-03-22T13:33:28.906Z,1.17
2023-03-22T13:36:15.836Z,1.17
2023-03-22T13:38:43.665Z,1.10
2023-03-22T13:41:16.886Z,1.65
2023-03-22T13:43:47.954Z,1.05
2023-03-22T13:46:19.978Z,1.27
2023-03-22T13:48:47.877Z,2.05
2023-03-22T13:51:27.903Z,1.90
2023-03-22T13:53:58.369Z,1.63
2023-03-22T13:56:44.532Z,2.15
2023-03-22T13:59:13.563Z,2.92
2023-03-22T14:01:58.957Z,2.17
2023-03-22T14:04:39.520Z,1.98
2023-03-22T14:07:37.402Z,2.45
2023-03-22T14:10:16.978Z,2.85
2023-03-22T14:12:50.598Z,1.88
2023-03-22T14:15:25.280Z,1.98
2023-03-22T14:18:26.948Z,2.95
2023-03-22T14:21:00.490Z,2.67
